This is the latest recevied weather packets stored in our database for station/object IU7LMH-13. If no packets are shown the sender has not sent any weather packets the latest 10 day(s).
| Time | Temp. | Humidity | Pressure | Rain* | Wind** | Luminosity | Snow |
|---|---|---|---|---|---|---|---|
| 1777730378 | 21.11° C | 32% | 1020 hPa | 0 mm | - | - | - |
| 1777729297 | 21.11° C | 32% | 1020.3 hPa | 0 mm | - | - | - |
| 1777727976 | 21.11° C | 32% | 1020.4 hPa | 0 mm | - | - | - |
| 1777727141 | 20.56° C | 32% | 1020.2 hPa | 0 mm | - | - | - |
| 1777726543 | 20.56° C | 32% | 1020.3 hPa | 0 mm | - | - | - |
| 1777725818 | 21.11° C | 32% | 1020.5 hPa | 0 mm | - | - | - |
| 1777725341 | 21.11° C | 33% | 1020.4 hPa | 0 mm | - | - | - |
| 1777724977 | 21.67° C | 31% | 1020.6 hPa | 0 mm | - | - | - |
| 1777724859 | 21.67° C | 32% | 1020.6 hPa | 0 mm | - | - | - |
| 1777723418 | 20° C | 34% | 1020.7 hPa | 0 mm | - | - | - |
| 1777722458 | 21.11° C | 33% | 1020.3 hPa | 0 mm | - | - | - |
| 1777721980 | 21.11° C | 32% | 1020.4 hPa | 0 mm | - | - | - |
| 1777720897 | 20.56° C | 33% | 1020.5 hPa | 0 mm | - | - | - |
| 1777719458 | 20° C | 34% | 1020.8 hPa | 0 mm | - | - | - |
| 1777717777 | 20° C | 37% | 1021 hPa | 0 mm | - | - | - |
| 1777716945 | 20.56° C | 37% | 1021 hPa | 0 mm | - | - | - |
| 1777716818 | 20.56° C | 36% | 1021 hPa | 0 mm | - | - | - |
| 1777716341 | 18.33° C | 37% | 1021.1 hPa | 0 mm | - | - | - |
| 1777716217 | 18.89° C | 37% | 1021.2 hPa | 0 mm | - | - | - |
| 1777715857 | 20° C | 36% | 1021.1 hPa | 0 mm | - | - | - |
| 1777715258 | 18.33° C | 38% | 1021.2 hPa | 0 mm | - | - | - |
| 1777715144 | 18.33° C | 38% | 1021.1 hPa | 0 mm | - | - | - |
| 1777713343 | 17.78° C | 38% | 1021.3 hPa | 0 mm | - | - | - |
| 1777713217 | 17.78° C | 37% | 1021.3 hPa | 0 mm | - | - | - |
| 1777712979 | 18.33° C | 37% | 1021.3 hPa | 0 mm | - | - | - |
* Rain latest hour (hover to see other rain measurements)
** Current wind speed in m/s (hover to see current wind gust speed)